Terminal Aerodrome Forecast
Issued by NWS

Home | Current Version | Previous Version | Text Only | Print | Product List | Glossary On
Versions: 1 2 3 4 5 6 7 8 9 10 11 12 13 14 15 16 17 18 19 20 21 22 23 24 25 26 27 28 29 30 31 32 33 34 35 36 37 38 39 40 41 42
000
FTUS45 KBOI 212145 AAB
TAFTWF
TAF AMD
KTWF 212145Z 2122/2218 21008KT P6SM VCTS FEW080CB BKN100
      TEMPO 2122/2123 VRB20G30KT 6SM +TSRA OVC050CB
     FM220200 16006KT P6SM BKN120
     FM221000 16005KT P6SM VCSH BKN100=

USA.gov is the U.S. government's official web portal to all federal, state and local government web resources and services.